Time;durP1;ratioP1;P1;durP2;ratioP2;P2;SDS_P1;SDS_P2;PMS_P1;PMS_P2;Temp;Humidity;BMP_temperature;BMP_pressure;BME280_temperature;BME280_humidity;BME280_pressure;Samples;Min_cycle;Max_cycle;Signal;HPM_P1;HPM_P2
2024/04/17 01:59:58;;;;;;;15.70;10.50;;;;;;;14.03;100.00;99342.15;102679;1291;600696;-75
2024/04/17 14:17:13;;;;;;;6.50;2.60;;;;;;;24.70;52.92;99130.15;102696;1292;614470;-80
2024/04/17 14:19:40;;;;;;;14.00;3.80;;;;;;;24.70;52.45;99130.86;105386;1263;59641;-79
2024/04/17 14:22:07;;;;;;;7.20;2.70;;;;;;;24.69;52.83;99126.48;105337;1263;61179;-80
2024/04/17 14:24:34;;;;;;;10.30;3.60;;;;;;;24.67;52.88;99126.05;105517;1258;74365;-80
2024/04/17 14:27:01;;;;;;;7.30;2.80;;;;;;;24.64;53.73;99123.04;105338;1264;64297;-80
2024/04/17 14:29:28;;;;;;;6.70;3.00;;;;;;;24.59;53.72;99121.41;105228;1264;214008;-80
2024/04/17 14:31:55;;;;;;;8.30;2.40;;;;;;;24.56;53.77;99117.48;105814;1257;60584;-81
2024/04/17 14:34:22;;;;;;;10.00;3.30;;;;;;;24.52;53.70;99118.39;106131;1261;60102;-79
2024/04/17 14:36:49;;;;;;;11.20;3.30;;;;;;;24.47;53.70;99120.02;109143;1256;72508;-76
2024/04/17 14:39:19;;;;;;;18.20;4.50;;;;;;;24.41;53.53;99112.81;107652;1258;62268;-80
2024/04/17 14:41:46;;;;;;;5.10;2.90;;;;;;;24.37;54.65;99105.30;105531;1260;72288;-84
2024/04/17 14:44:13;;;;;;;12.60;3.20;;;;;;;24.34;55.47;99090.15;105421;1261;60397;-78
2024/04/17 14:46:40;;;;;;;9.50;3.50;;;;;;;24.33;55.95;99080.04;105623;1260;60538;-79
2024/04/17 14:49:07;;;;;;;10.20;3.00;;;;;;;24.32;54.99;99079.95;105643;1257;74905;-84
2024/04/17 14:51:34;;;;;;;10.90;2.90;;;;;;;24.32;55.44;99086.36;105696;1261;65204;-81
2024/04/17 14:54:02;;;;;;;14.00;4.60;;;;;;;24.34;56.42;99086.54;105628;1259;72796;-80
2024/04/17 14:56:30;;;;;;;7.70;3.30;;;;;;;24.35;55.51;99092.42;105494;1263;61463;-81
2024/04/17 14:58:57;;;;;;;10.00;3.40;;;;;;;24.35;55.60;99092.25;105621;1256;60420;-83
2024/04/17 15:01:25;;;;;;;7.70;3.40;;;;;;;24.32;55.72;99094.63;105585;1257;74019;-82
2024/04/17 15:03:53;;;;;;;9.30;3.70;;;;;;;24.28;56.51;99097.75;106355;1253;64020;-81
2024/04/17 15:06:20;;;;;;;15.80;4.00;;;;;;;24.24;57.48;99101.21;106227;1254;72455;-84
2024/04/17 15:08:47;;;;;;;16.00;3.50;;;;;;;24.18;58.64;99110.52;106228;1255;61550;-80
2024/04/17 15:11:15;;;;;;;11.70;3.70;;;;;;;24.12;59.26;99113.13;106235;1254;60519;-80
2024/04/17 15:13:42;;;;;;;9.00;3.20;;;;;;;24.05;60.99;99115.72;106161;1253;73654;-80
2024/04/17 15:16:11;;;;;;;13.90;3.90;;;;;;;23.99;62.33;99117.33;106182;1254;62573;-78
2024/04/17 15:18:39;;;;;;;10.10;3.60;;;;;;;23.92;62.93;99126.31;106225;1254;73658;-81
2024/04/17 15:21:09;;;;;;;10.70;3.80;;;;;;;23.85;64.25;99129.65;106198;1248;60331;-82
2024/04/17 15:23:36;;;;;;;15.80;4.10;;;;;;;23.77;65.24;99132.83;106203;1248;60465;-81
2024/04/17 15:26:04;;;;;;;18.30;5.30;;;;;;;23.71;67.00;99138.52;106250;1253;73908;-82
2024/04/17 15:28:32;;;;;;;15.80;6.40;;;;;;;23.65;68.38;99138.09;106223;1257;64117;-79
2024/04/17 15:31:12;;;;;;;11.20;5.00;;;;;;;23.58;69.81;99137.27;106266;1254;70959;-78
2024/04/17 15:33:40;;;;;;;16.80;4.80;;;;;;;23.51;69.93;99139.98;106299;1254;60430;-79
2024/04/17 15:36:08;;;;;;;17.30;5.20;;;;;;;23.45;71.13;99139.72;106320;1253;60334;-80
2024/04/17 15:38:35;;;;;;;10.00;3.90;;;;;;;23.37;70.84;99140.36;106244;1254;75003;-80
2024/04/17 15:41:04;;;;;;;14.40;4.40;;;;;;;23.29;70.19;99138.98;106214;1248;64271;-82
2024/04/17 15:43:36;;;;;;;13.40;4.60;;;;;;;23.21;69.80;99137.83;106243;1252;73848;-81
2024/04/17 15:46:11;;;;;;;17.00;4.20;;;;;;;23.13;69.46;99144.17;106127;1253;60555;-78
2024/04/17 15:48:38;;;;;;;10.60;4.80;;;;;;;23.05;68.57;99144.99;106192;1249;60485;-76
2024/04/17 15:51:09;;;;;;;14.10;4.30;;;;;;;22.95;67.61;99140.81;106161;1254;72438;-78
2024/04/17 15:53:37;;;;;;;16.50;3.70;;;;;;;22.87;68.35;99136.48;106213;1253;65313;-81
2024/04/17 15:56:13;;;;;;;13.90;3.70;;;;;;;22.79;68.67;99132.74;106222;1253;73580;-79
2024/04/17 15:58:40;;;;;;;10.10;3.20;;;;;;;22.70;69.09;99135.55;106093;1254;61448;-81
2024/04/17 16:01:08;;;;;;;17.20;4.00;;;;;;;22.61;69.88;99142.30;106229;1253;61891;-78
2024/04/17 16:03:36;;;;;;;8.50;3.50;;;;;;;22.53;71.58;99146.13;106180;1252;74718;-79
2024/04/17 16:06:10;;;;;;;8.50;3.90;;;;;;;22.47;72.73;99147.78;106185;1248;64096;-78
2024/04/17 16:08:37;;;;;;;10.30;4.10;;;;;;;22.39;73.66;99149.38;106173;1248;71947;-79
2024/04/17 16:11:05;;;;;;;15.00;3.80;;;;;;;22.30;74.97;99146.45;106240;1253;60527;-78
2024/04/17 16:13:33;;;;;;;14.10;4.10;;;;;;;22.22;75.99;99146.89;106243;1253;60412;-78
2024/04/17 16:16:00;;;;;;;13.80;4.30;;;;;;;22.14;77.44;99151.77;106243;1254;73553;-81
2024/04/17 16:18:28;;;;;;;12.80;4.70;;;;;;;22.05;78.63;99160.20;106346;1255;64160;-81
2024/04/17 16:20:56;;;;;;;14.30;3.70;;;;;;;21.95;80.22;99154.38;106307;1248;73634;-84
2024/04/17 16:23:31;;;;;;;14.00;4.40;;;;;;;21.87;81.79;99157.89;106200;1247;60307;-80
2024/04/17 16:25:58;;;;;;;14.10;4.20;;;;;;;21.80;84.09;99159.80;106209;1254;60475;-80
2024/04/17 16:28:26;;;;;;;12.40;4.10;;;;;;;21.71;85.03;99159.36;106166;1254;75429;-77
2024/04/17 16:30:53;;;;;;;16.00;4.90;;;;;;;21.63;86.12;99162.98;106138;1254;63711;-77
2024/04/17 16:33:20;;;;;;;14.40;4.10;;;;;;;21.57;87.06;99174.75;106167;1254;73911;-79
2024/04/17 16:35:58;;;;;;;12.50;3.80;;;;;;;21.50;88.81;99177.52;106005;1257;60526;-80
2024/04/17 16:38:25;;;;;;;12.60;4.60;;;;;;;21.42;89.71;99183.59;106315;1253;60469;-77
2024/04/17 16:40:52;;;;;;;14.90;4.10;;;;;;;21.33;90.30;99188.84;106253;1253;74933;-84
2024/04/17 16:43:19;;;;;;;15.60;4.60;;;;;;;21.28;92.10;99197.59;106210;1248;65044;-80
2024/04/17 16:45:45;;;;;;;19.90;4.50;;;;;;;21.21;93.39;99205.69;106262;1253;71105;-77
2024/04/17 16:48:12;;;;;;;18.60;4.50;;;;;;;21.14;94.17;99207.48;106756;1248;60416;-80
2024/04/17 16:50:39;;;;;;;13.60;5.20;;;;;;;21.07;95.66;99208.17;106639;1253;60443;-81
2024/04/17 16:53:06;;;;;;;12.40;4.30;;;;;;;21.01;96.98;99208.79;106223;1248;72601;-83
2024/04/17 16:55:33;;;;;;;17.90;6.60;;;;;;;20.95;98.43;99209.77;106294;1248;65387;-81
2024/04/17 16:58:00;;;;;;;17.30;6.60;;;;;;;20.88;99.77;99212.17;106261;1248;72060;-80
2024/04/17 17:00:28;;;;;;;9.40;4.80;;;;;;;20.82;99.95;99213.66;106356;1254;61298;-80
2024/04/17 17:02:55;;;;;;;13.50;3.90;;;;;;;20.76;100.00;99220.85;106173;1254;60462;-82
2024/04/17 17:05:22;;;;;;;16.10;4.20;;;;;;;20.70;100.00;99226.08;106419;1249;73894;-81
2024/04/17 17:07:49;;;;;;;18.00;5.10;;;;;;;20.63;100.00;99231.29;106498;1254;64765;-81
2024/04/17 17:10:16;;;;;;;16.30;4.80;;;;;;;20.58;100.00;99235.69;106886;1253;72690;-80
2024/04/17 17:12:42;;;;;;;13.40;6.60;;;;;;;20.52;100.00;99240.45;106681;1253;60578;-79
2024/04/17 17:15:09;;;;;;;18.00;7.00;;;;;;;20.46;100.00;99242.41;106299;1253;61387;-80
2024/04/17 17:17:36;;;;;;;22.60;5.60;;;;;;;20.42;100.00;99243.38;106202;1249;75053;-81
2024/04/17 17:20:04;;;;;;;14.50;4.30;;;;;;;20.36;100.00;99244.96;106287;1248;62667;-80
2024/04/17 17:22:32;;;;;;;16.40;4.30;;;;;;;20.30;100.00;99247.24;106235;1248;72698;-78
2024/04/17 17:25:00;;;;;;;13.60;4.90;;;;;;;20.24;100.00;99252.95;106238;1254;60530;-80
2024/04/17 17:27:28;;;;;;;8.10;3.80;;;;;;;20.19;100.00;99257.23;106262;1254;61143;-78
2024/04/17 17:29:56;;;;;;;15.40;4.40;;;;;;;20.13;100.00;99258.47;106367;1253;73893;-79
2024/04/17 17:32:23;;;;;;;9.10;2.70;;;;;;;20.07;98.41;99255.30;108148;1248;64928;-78
2024/04/17 17:34:54;;;;;;;7.50;3.10;;;;;;;20.00;96.50;99243.80;107839;1253;72810;-79
2024/04/17 17:37:21;;;;;;;7.30;3.70;;;;;;;19.96;94.62;99247.35;106059;1255;60529;-81
2024/04/17 17:39:48;;;;;;;9.40;3.10;;;;;;;19.91;94.08;99253.63;106253;1253;60536;-80
2024/04/17 17:42:15;;;;;;;11.90;2.50;;;;;;;19.86;94.03;99251.00;106208;1248;73568;-80
2024/04/17 17:44:42;;;;;;;11.10;2.90;;;;;;;19.82;93.38;99253.52;106242;1248;62310;-81
2024/04/17 17:47:08;;;;;;;7.30;2.50;;;;;;;19.78;93.93;99248.65;106222;1253;73904;-79
2024/04/17 17:49:35;;;;;;;7.60;2.70;;;;;;;19.74;94.70;99254.67;106158;1255;61519;-82
2024/04/17 17:52:03;;;;;;;8.00;2.80;;;;;;;19.68;95.18;99254.95;106346;1248;60407;-81
2024/04/17 17:54:30;;;;;;;9.10;2.80;;;;;;;19.63;96.34;99249.33;106285;1248;72594;-80
2024/04/17 17:56:57;;;;;;;5.20;2.70;;;;;;;19.58;96.98;99257.02;106188;1253;62524;-82
2024/04/17 17:59:24;;;;;;;12.80;3.60;;;;;;;19.53;98.17;99266.73;106210;1248;72777;-81
2024/04/17 18:01:50;;;;;;;6.10;3.20;;;;;;;19.47;98.92;99274.01;106185;1254;60438;-82
2024/04/17 18:04:17;;;;;;;11.20;2.90;;;;;;;19.41;99.94;99273.44;106215;1253;61039;-81
2024/04/17 18:06:44;;;;;;;13.10;4.00;;;;;;;19.34;100.00;99273.90;106255;1254;72436;-82
2024/04/17 18:09:12;;;;;;;5.80;3.20;;;;;;;19.28;100.00;99277.05;106192;1254;65007;-80
2024/04/17 18:11:39;;;;;;;7.80;2.80;;;;;;;19.22;100.00;99278.98;106166;1253;73874;-80
2024/04/17 18:14:07;;;;;;;9.00;3.20;;;;;;;19.16;100.00;99281.13;106296;1248;60523;-82
2024/04/17 18:16:36;;;;;;;4.80;3.00;;;;;;;19.11;100.00;99278.95;106308;1254;60501;-79
2024/04/17 18:19:03;;;;;;;8.50;3.40;;;;;;;19.05;100.00;99285.30;106135;1248;72614;-79
2024/04/17 18:21:30;;;;;;;13.40;4.10;;;;;;;18.99;100.00;99281.41;106163;1253;64196;-82
2024/04/17 18:23:57;;;;;;;10.30;3.90;;;;;;;18.93;100.00;99278.41;106143;1248;71503;-80
2024/04/17 18:26:24;;;;;;;12.60;2.90;;;;;;;18.87;100.00;99278.32;106175;1253;61586;-80
2024/04/17 18:28:52;;;;;;;5.70;3.10;;;;;;;18.82;100.00;99276.60;106303;1248;61246;-79
2024/04/17 18:31:20;;;;;;;11.50;3.50;;;;;;;18.78;100.00;99272.27;106152;1248;73798;-80
2024/04/17 18:33:50;;;;;;;10.40;3.60;;;;;;;18.74;100.00;99273.61;106132;1248;64102;-80
2024/04/17 18:36:17;;;;;;;5.70;2.60;;;;;;;18.68;100.00;99269.89;106242;1248;72803;-79
2024/04/17 18:38:50;;;;;;;9.50;2.40;;;;;;;18.65;100.00;99264.80;106136;1253;61241;-80
2024/04/17 18:41:18;;;;;;;6.70;3.00;;;;;;;18.61;100.00;99264.86;106184;1248;61215;-82
2024/04/17 18:43:54;;;;;;;7.80;2.80;;;;;;;18.57;100.00;99259.46;106223;1248;75654;-82
2024/04/17 18:46:22;;;;;;;10.00;3.00;;;;;;;18.53;100.00;99256.77;106242;1248;63472;-82
2024/04/17 18:48:49;;;;;;;11.10;3.20;;;;;;;18.49;100.00;99250.70;106206;1248;72753;-83
2024/04/17 18:51:16;;;;;;;10.50;3.30;;;;;;;18.45;100.00;99253.13;106231;1248;61459;-81
2024/04/17 18:53:49;;;;;;;6.30;4.30;;;;;;;18.41;100.00;99265.05;106198;1252;61218;-83
2024/04/17 18:56:19;;;;;;;10.10;2.60;;;;;;;18.36;100.00;99269.71;106376;1248;74550;-82
2024/04/17 18:58:46;;;;;;;10.50;3.00;;;;;;;18.30;100.00;99266.16;106203;1253;64946;-80
2024/04/17 19:01:14;;;;;;;9.00;3.10;;;;;;;18.26;100.00;99270.48;106273;1248;72840;-79
2024/04/17 19:03:41;;;;;;;8.70;2.80;;;;;;;18.21;100.00;99274.54;106232;1254;61234;-78
2024/04/17 19:06:10;;;;;;;7.00;2.60;;;;;;;18.17;100.00;99276.91;106344;1248;61256;-78
2024/04/17 19:08:38;;;;;;;6.30;2.70;;;;;;;18.13;100.00;99280.41;106314;1248;75574;-81
2024/04/17 19:11:10;;;;;;;9.40;2.20;;;;;;;18.10;100.00;99276.38;106249;1253;64941;-79
2024/04/17 19:13:36;;;;;;;7.90;2.60;;;;;;;18.07;100.00;99277.92;106209;1254;72594;-81
2024/04/17 19:16:14;;;;;;;7.80;2.30;;;;;;;18.04;100.00;99272.15;106310;1248;61220;-80
2024/04/17 19:18:42;;;;;;;10.30;2.70;;;;;;;18.00;100.00;99265.40;106300;1248;61232;-80
2024/04/17 19:21:10;;;;;;;9.10;2.90;;;;;;;17.98;100.00;99261.13;106199;1253;74775;-80
2024/04/17 19:23:38;;;;;;;11.80;2.90;;;;;;;17.95;100.00;99258.20;106249;1253;65127;-82
2024/04/17 19:26:05;;;;;;;6.80;3.20;;;;;;;17.93;100.00;99262.17;106257;1254;73673;-78
2024/04/17 19:28:33;;;;;;;5.50;2.40;;;;;;;17.91;100.00;99260.92;106226;1253;61262;-79
2024/04/17 19:31:03;;;;;;;5.90;2.80;;;;;;;17.90;100.00;99256.56;106217;1248;61339;-80
2024/04/17 19:33:47;;;;;;;9.90;2.60;;;;;;;17.87;100.00;99253.89;106341;1248;73435;-81
2024/04/17 19:36:14;;;;;;;6.90;2.40;;;;;;;17.83;100.00;99257.27;106243;1253;65215;-80
2024/04/17 19:38:47;;;;;;;8.60;3.00;;;;;;;17.80;100.00;99254.77;106304;1248;73568;-82
2024/04/17 19:41:14;;;;;;;9.60;2.50;;;;;;;17.76;100.00;99254.63;106285;1253;61250;-81
2024/04/17 19:43:43;;;;;;;10.70;3.00;;;;;;;17.73;100.00;99252.48;106230;1248;61514;-81
2024/04/17 19:46:12;;;;;;;8.10;2.70;;;;;;;17.70;100.00;99253.10;106227;1253;73348;-83
2024/04/17 19:48:40;;;;;;;7.00;2.60;;;;;;;17.65;100.00;99250.77;106249;1254;63806;-76
2024/04/17 19:51:11;;;;;;;10.40;3.40;;;;;;;17.62;100.00;99252.73;106279;1253;72955;-79
2024/04/17 19:53:38;;;;;;;4.70;2.50;;;;;;;17.58;100.00;99258.66;106295;1253;61135;-80
2024/04/17 19:56:15;;;;;;;7.30;3.00;;;;;;;17.55;100.00;99261.10;106234;1248;61332;-82
2024/04/17 19:58:43;;;;;;;8.10;2.70;;;;;;;17.50;100.00;99260.52;106317;1248;74622;-80
2024/04/17 20:01:11;;;;;;;8.40;3.10;;;;;;;17.47;100.00;99262.52;106183;1252;63992;-80
2024/04/17 20:03:38;;;;;;;7.50;3.00;;;;;;;17.44;100.00;99267.13;106247;1248;71251;-80
2024/04/17 20:06:06;;;;;;;7.60;3.00;;;;;;;17.40;100.00;99260.94;106212;1253;61209;-83
2024/04/17 20:08:33;;;;;;;11.20;3.70;;;;;;;17.37;100.00;99256.31;106242;1248;61345;-81
2024/04/17 20:11:01;;;;;;;9.70;3.10;;;;;;;17.36;100.00;99258.92;106179;1248;74820;-79
2024/04/17 20:13:30;;;;;;;11.90;2.70;;;;;;;17.35;100.00;99259.20;106365;1253;65203;-77
2024/04/17 20:15:58;;;;;;;7.60;2.30;;;;;;;17.34;100.00;99252.11;106234;1253;72734;-80
2024/04/17 20:18:26;;;;;;;11.10;2.90;;;;;;;17.33;100.00;99243.17;106195;1253;61336;-81
2024/04/17 20:21:02;;;;;;;10.70;3.50;;;;;;;17.33;100.00;99237.23;106203;1248;61237;-78
2024/04/17 20:23:34;;;;;;;10.10;3.10;;;;;;;17.32;100.00;99233.76;106149;1254;75891;-77
2024/04/17 20:26:09;;;;;;;7.20;2.30;;;;;;;17.32;100.00;99241.71;107751;1248;63207;-79
2024/04/17 20:28:37;;;;;;;8.50;2.50;;;;;;;17.32;100.00;99247.54;108920;1248;72600;-78
2024/04/17 20:31:15;;;;;;;8.30;2.50;;;;;;;17.32;100.00;99246.85;107152;1253;61131;-80
2024/04/17 20:33:46;;;;;;;18.40;2.50;;;;;;;17.32;100.00;99250.39;106169;1253;61541;-80
2024/04/17 20:36:16;;;;;;;8.10;2.50;;;;;;;17.31;100.00;99251.88;106078;1248;73509;-78
2024/04/17 20:38:45;;;;;;;9.70;2.80;;;;;;;17.31;100.00;99252.04;106114;1248;62356;-77
2024/04/17 20:41:13;;;;;;;7.90;2.70;;;;;;;17.31;100.00;99249.96;106245;1254;72589;-79
2024/04/17 20:43:40;;;;;;;6.20;3.00;;;;;;;17.30;100.00;99253.59;106237;1253;61241;-78
2024/04/17 20:46:10;;;;;;;6.50;2.70;;;;;;;17.29;100.00;99261.30;106138;1254;61230;-79
2024/04/17 20:48:38;;;;;;;10.50;4.10;;;;;;;17.28;100.00;99262.42;106327;1248;74494;-77
2024/04/17 20:51:07;;;;;;;4.90;2.60;;;;;;;17.27;100.00;99267.73;106007;1248;62549;-81
2024/04/17 20:53:38;;;;;;;7.80;2.40;;;;;;;17.25;100.00;99267.23;106310;1253;72839;-77
2024/04/17 20:56:05;;;;;;;11.60;4.50;;;;;;;17.23;100.00;99271.20;106322;1253;61317;-78
2024/04/17 20:58:32;;;;;;;11.50;3.90;;;;;;;17.21;100.00;99281.81;106240;1248;61256;-80
2024/04/17 21:01:00;;;;;;;7.50;3.10;;;;;;;17.19;100.00;99292.70;106147;1248;61256;-77
2024/04/17 21:03:31;;;;;;;5.40;2.80;;;;;;;17.18;100.00;99294.13;106292;1250;64986;-78
2024/04/17 21:05:59;;;;;;;11.10;2.80;;;;;;;17.15;100.00;99298.10;106087;1250;71412;-77
2024/04/17 21:08:26;;;;;;;13.70;3.40;;;;;;;17.13;100.00;99296.25;105853;1255;61138;-77
2024/04/17 21:11:00;;;;;;;6.20;2.40;;;;;;;17.10;100.00;99285.30;106169;1248;61257;-76
2024/04/17 21:13:27;;;;;;;;;;;;;;;17.06;100.00;99299.64;106163;1248;75640;-81
2024/04/17 21:16:25;;;;;;;10.80;3.50;;;;;;;17.04;100.00;99297.27;106233;1251;63953;-77
2024/04/17 21:18:55;;;;;;;11.60;3.60;;;;;;;17.00;100.00;99287.55;106136;1248;72693;-79
2024/04/17 21:21:21;;;;;;;7.20;2.70;;;;;;;16.98;100.00;99293.86;106148;1248;61419;-75
2024/04/17 21:23:48;;;;;;;9.70;3.10;;;;;;;16.95;100.00;99295.70;106152;1248;61208;-78
2024/04/17 21:26:16;;;;;;;7.50;3.20;;;;;;;16.92;100.00;99307.39;106155;1254;74640;-78
2024/04/17 21:28:44;;;;;;;6.10;3.00;;;;;;;16.88;100.00;99302.52;106069;1254;63737;-77
2024/04/17 21:31:17;;;;;;;8.20;3.60;;;;;;;16.83;100.00;99297.02;106309;1248;71514;-76
2024/04/17 21:33:48;;;;;;;9.20;3.30;;;;;;;16.78;100.00;99298.88;106191;1248;61265;-80
2024/04/17 21:36:15;;;;;;;8.60;2.70;;;;;;;16.74;100.00;99311.05;106207;1248;61147;-78
2024/04/17 21:38:42;;;;;;;7.40;3.40;;;;;;;16.69;100.00;99305.53;106117;1253;72899;-79
2024/04/17 21:41:09;;;;;;;10.20;3.70;;;;;;;16.65;100.00;99294.86;106272;1253;63940;-80
2024/04/17 21:43:36;;;;;;;9.60;3.20;;;;;;;16.61;100.00;99300.25;106180;1253;72632;-78
2024/04/17 21:46:05;;;;;;;9.50;3.20;;;;;;;16.57;100.00;99303.27;106106;1248;61933;-79
2024/04/17 21:48:32;;;;;;;7.00;2.90;;;;;;;16.53;100.00;99296.64;106223;1254;61279;-78
2024/04/17 21:51:03;;;;;;;14.30;3.90;;;;;;;16.48;100.00;99292.89;106221;1248;74656;-76
2024/04/17 21:53:30;;;;;;;7.10;2.70;;;;;;;16.45;100.00;99291.89;106223;1252;64926;-76
2024/04/17 21:56:00;;;;;;;6.50;2.50;;;;;;;16.41;100.00;99289.70;106240;1254;72405;-78
2024/04/17 21:58:27;;;;;;;4.90;2.40;;;;;;;16.37;100.00;99290.73;106483;1253;61221;-77
2024/04/17 22:00:59;;;;;;;7.20;3.20;;;;;;;16.33;100.00;99291.73;106253;1248;61320;-78
2024/04/17 22:03:26;;;;;;;9.20;3.00;;;;;;;16.28;100.00;99291.16;106320;1248;73500;-77
2024/04/17 22:05:54;;;;;;;13.50;3.60;;;;;;;16.24;100.00;99294.98;106360;1252;63884;-77
2024/04/17 22:08:25;;;;;;;7.50;2.90;;;;;;;16.20;100.00;99299.23;106279;1253;70332;-78
2024/04/17 22:10:51;;;;;;;7.70;3.60;;;;;;;16.17;100.00;99301.48;106298;1253;61141;-79
2024/04/17 22:13:20;;;;;;;11.00;3.10;;;;;;;16.14;100.00;99300.37;106262;1252;61247;-80
2024/04/17 22:15:47;;;;;;;8.80;3.10;;;;;;;16.11;100.00;99299.15;106277;1252;74318;-77
2024/04/17 22:18:13;;;;;;;8.50;3.10;;;;;;;16.07;100.00;99299.00;106299;1252;63795;-78
2024/04/17 22:20:41;;;;;;;7.30;2.60;;;;;;;16.05;100.00;99303.52;106363;1248;73665;-76
2024/04/17 22:23:07;;;;;;;10.40;3.30;;;;;;;16.02;100.00;99305.89;106276;1253;61342;-78
2024/04/17 22:25:34;;;;;;;8.30;2.80;;;;;;;15.99;100.00;99307.40;106219;1248;61438;-76
2024/04/17 22:28:01;;;;;;;13.00;3.10;;;;;;;15.98;100.00;99307.71;106145;1253;74628;-77
2024/04/17 22:30:29;;;;;;;7.30;2.70;;;;;;;15.95;100.00;99305.55;106238;1253;62703;-80
2024/04/17 22:32:55;;;;;;;12.50;3.10;;;;;;;15.92;100.00;99309.75;106304;1248;72460;-78
2024/04/17 22:35:22;;;;;;;10.70;3.20;;;;;;;15.89;100.00;99309.67;106250;1252;61975;-79
2024/04/17 22:37:49;;;;;;;6.50;2.60;;;;;;;15.87;100.00;99308.86;106225;1253;61240;-78
2024/04/17 22:40:16;;;;;;;8.70;2.70;;;;;;;15.85;100.00;99314.57;106434;1248;74289;-75
2024/04/17 22:42:43;;;;;;;3.80;2.40;;;;;;;15.82;100.00;99315.32;107594;1248;62610;-76
2024/04/17 22:45:10;;;;;;;7.40;2.40;;;;;;;15.81;100.00;99316.00;108089;1248;71160;-76
2024/04/17 22:47:37;;;;;;;11.50;5.30;;;;;;;15.80;100.00;99314.70;106685;1248;61131;-77
2024/04/17 22:50:05;;;;;;;9.20;3.20;;;;;;;15.78;100.00;99313.14;106261;1248;61326;-79
2024/04/17 22:52:34;;;;;;;11.50;3.50;;;;;;;15.75;100.00;99314.42;106241;1254;74743;-79
2024/04/17 22:55:02;;;;;;;13.60;4.20;;;;;;;15.74;100.00;99319.09;106298;1253;62643;-75
2024/04/17 22:57:29;;;;;;;7.00;2.90;;;;;;;15.74;100.00;99318.83;106284;1248;72665;-77
2024/04/17 22:59:55;;;;;;;8.60;3.20;;;;;;;15.73;100.00;99319.63;106235;1253;62027;-77
2024/04/17 23:02:22;;;;;;;8.40;2.90;;;;;;;15.71;100.00;99312.75;106291;1248;61287;-77
2024/04/17 23:04:49;;;;;;;9.00;3.80;;;;;;;15.69;100.00;99315.75;106175;1248;74661;-78
2024/04/17 23:07:16;;;;;;;9.20;2.50;;;;;;;15.67;100.00;99321.62;106186;1252;63843;-77
2024/04/17 23:09:43;;;;;;;6.50;2.90;;;;;;;15.64;100.00;99322.07;106300;1248;72597;-78
2024/04/17 23:12:12;;;;;;;6.80;3.00;;;;;;;15.61;100.00;99316.73;106276;1248;61217;-79
2024/04/17 23:14:39;;;;;;;8.50;2.60;;;;;;;15.60;100.00;99311.77;106220;1253;61173;-80
2024/04/17 23:17:05;;;;;;;12.20;3.30;;;;;;;15.59;100.00;99317.02;106235;1249;74338;-75
2024/04/17 23:19:32;;;;;;;10.60;3.30;;;;;;;15.57;100.00;99316.64;106119;1251;62668;-78
2024/04/17 23:21:59;;;;;;;14.70;2.70;;;;;;;15.57;100.00;99321.10;106515;1248;72454;-76
2024/04/17 23:24:25;;;;;;;8.30;3.30;;;;;;;15.54;100.00;99320.77;109791;1248;60636;-75
2024/04/17 23:26:52;;;;;;;15.70;2.90;;;;;;;15.54;100.00;99316.73;108478;1252;61134;-77
2024/04/17 23:29:19;;;;;;;10.10;3.00;;;;;;;15.54;100.00;99315.20;106082;1248;74436;-76
2024/04/17 23:31:45;;;;;;;11.50;3.10;;;;;;;15.52;100.00;99312.16;106256;1253;63787;-75
2024/04/17 23:34:12;;;;;;;10.10;4.50;;;;;;;15.52;100.00;99310.98;106109;1254;72621;-77
2024/04/17 23:36:39;;;;;;;9.70;3.10;;;;;;;15.51;100.00;99313.70;106194;1253;61859;-78
2024/04/17 23:39:06;;;;;;;10.60;2.90;;;;;;;15.50;100.00;99317.30;106232;1248;61231;-76
2024/04/17 23:41:33;;;;;;;14.80;4.00;;;;;;;15.50;100.00;99312.41;106303;1248;61237;-77
2024/04/17 23:43:59;;;;;;;13.00;4.20;;;;;;;15.49;100.00;99310.19;106135;1248;63735;-78
2024/04/17 23:46:26;;;;;;;9.60;2.90;;;;;;;15.47;100.00;99302.16;106211;1253;72511;-77
2024/04/17 23:48:54;;;;;;;10.40;4.50;;;;;;;15.45;100.00;99301.27;106230;1253;61326;-78
2024/04/17 23:51:21;;;;;;;8.00;3.00;;;;;;;15.44;100.00;99301.40;106287;1248;60408;-76
2024/04/17 23:53:49;;;;;;;9.10;3.60;;;;;;;15.41;100.00;99296.76;106236;1248;74689;-76
2024/04/17 23:56:17;;;;;;;8.30;3.50;;;;;;;15.38;100.00;99298.13;106321;1254;63857;-77
2024/04/17 23:58:46;;;;;;;9.80;4.00;;;;;;;15.35;100.00;99300.89;106266;1253;71174;-78
